sensor_id;sensor_type;location;lat;lon;timestamp;pressure;altitude;pressure_sealevel;temperature
70050;BMP180;57391;51.306;22.680;2023-03-13T00:01:47;99280.20;;;2.34
70050;BMP180;57391;51.306;22.680;2023-03-13T00:04:15;99284.60;;;2.40
70050;BMP180;57391;51.306;22.680;2023-03-13T00:06:42;99278.00;;;2.40
70050;BMP180;57391;51.306;22.680;2023-03-13T00:09:13;99276.00;;;2.40
70050;BMP180;57391;51.306;22.680;2023-03-13T00:11:42;99281.20;;;2.40
70050;BMP180;57391;51.306;22.680;2023-03-13T00:14:10;99272.20;;;2.40
70050;BMP180;57391;51.306;22.680;2023-03-13T00:16:38;99274.60;;;2.40
70050;BMP180;57391;51.306;22.680;2023-03-13T00:19:07;99269.80;;;2.40
70050;BMP180;57391;51.306;22.680;2023-03-13T00:21:35;99261.20;;;2.40
70050;BMP180;57391;51.306;22.680;2023-03-13T00:24:04;99263.20;;;2.44
70050;BMP180;57391;51.306;22.680;2023-03-13T00:26:34;99263.20;;;2.48
70050;BMP180;57391;51.306;22.680;2023-03-13T00:29:02;99258.40;;;2.50
70050;BMP180;57391;51.306;22.680;2023-03-13T00:31:30;99252.60;;;2.50
70050;BMP180;57391;51.306;22.680;2023-03-13T00:34:01;99260.20;;;2.50
70050;BMP180;57391;51.306;22.680;2023-03-13T00:36:34;99270.00;;;2.50
70050;BMP180;57391;51.306;22.680;2023-03-13T00:39:05;99267.20;;;2.50
70050;BMP180;57391;51.306;22.680;2023-03-13T00:41:36;99271.80;;;2.50
70050;BMP180;57391;51.306;22.680;2023-03-13T00:44:05;99270.40;;;2.50
70050;BMP180;57391;51.306;22.680;2023-03-13T00:46:32;99273.20;;;2.54
70050;BMP180;57391;51.306;22.680;2023-03-13T00:49:00;99270.60;;;2.54
70050;BMP180;57391;51.306;22.680;2023-03-13T00:51:27;99267.60;;;2.60
70050;BMP180;57391;51.306;22.680;2023-03-13T00:53:57;99259.20;;;2.60
70050;BMP180;57391;51.306;22.680;2023-03-13T00:56:29;99249.60;;;2.60
70050;BMP180;57391;51.306;22.680;2023-03-13T00:58:59;99238.40;;;2.60
70050;BMP180;57391;51.306;22.680;2023-03-13T01:01:33;99249.00;;;2.60
70050;BMP180;57391;51.306;22.680;2023-03-13T01:04:08;99245.20;;;2.66
70050;BMP180;57391;51.306;22.680;2023-03-13T01:06:39;99241.60;;;2.70
70050;BMP180;57391;51.306;22.680;2023-03-13T01:09:13;99238.80;;;2.70
70050;BMP180;57391;51.306;22.680;2023-03-13T01:11:43;99236.00;;;2.70
70050;BMP180;57391;51.306;22.680;2023-03-13T01:14:14;99228.80;;;2.80
70050;BMP180;57391;51.306;22.680;2023-03-13T01:16:42;99219.40;;;2.80
70050;BMP180;57391;51.306;22.680;2023-03-13T01:19:15;99222.00;;;2.80
70050;BMP180;57391;51.306;22.680;2023-03-13T01:21:44;99227.80;;;2.86
70050;BMP180;57391;51.306;22.680;2023-03-13T01:24:12;99228.40;;;2.90
70050;BMP180;57391;51.306;22.680;2023-03-13T01:26:40;99226.20;;;2.90
70050;BMP180;57391;51.306;22.680;2023-03-13T01:29:07;99223.00;;;2.92
70050;BMP180;57391;51.306;22.680;2023-03-13T01:31:35;99218.00;;;2.98
70050;BMP180;57391;51.306;22.680;2023-03-13T01:34:08;99215.60;;;3.00
70050;BMP180;57391;51.306;22.680;2023-03-13T01:36:36;99220.00;;;3.00
70050;BMP180;57391;51.306;22.680;2023-03-13T01:39:05;99220.20;;;3.00
70050;BMP180;57391;51.306;22.680;2023-03-13T01:41:32;99221.60;;;3.00
70050;BMP180;57391;51.306;22.680;2023-03-13T01:44:00;99215.20;;;3.00
70050;BMP180;57391;51.306;22.680;2023-03-13T01:46:36;99211.20;;;3.00
70050;BMP180;57391;51.306;22.680;2023-03-13T01:49:16;99207.60;;;3.00
70050;BMP180;57391;51.306;22.680;2023-03-13T01:52:00;99207.20;;;3.10
70050;BMP180;57391;51.306;22.680;2023-03-13T01:55:06;99200.40;;;3.10
70050;BMP180;57391;51.306;22.680;2023-03-13T01:57:42;99193.40;;;3.10
70050;BMP180;57391;51.306;22.680;2023-03-13T02:00:16;99188.40;;;3.20
70050;BMP180;57391;51.306;22.680;2023-03-13T02:02:50;99184.60;;;3.20
70050;BMP180;57391;51.306;22.680;2023-03-13T02:05:21;99181.00;;;3.22
70050;BMP180;57391;51.306;22.680;2023-03-13T02:07:57;99180.40;;;3.30
70050;BMP180;57391;51.306;22.680;2023-03-13T02:10:30;99182.20;;;3.30
70050;BMP180;57391;51.306;22.680;2023-03-13T02:13:00;99179.20;;;3.30
70050;BMP180;57391;51.306;22.680;2023-03-13T02:15:30;99173.00;;;3.40
70050;BMP180;57391;51.306;22.680;2023-03-13T02:17:57;99172.20;;;3.40
70050;BMP180;57391;51.306;22.680;2023-03-13T02:20:26;99172.20;;;3.40
70050;BMP180;57391;51.306;22.680;2023-03-13T02:23:37;99177.40;;;3.40
70050;BMP180;57391;51.306;22.680;2023-03-13T02:26:06;99177.40;;;3.40
70050;BMP180;57391;51.306;22.680;2023-03-13T02:28:36;99184.60;;;3.40
70050;BMP180;57391;51.306;22.680;2023-03-13T02:31:07;99186.60;;;3.40
70050;BMP180;57391;51.306;22.680;2023-03-13T02:33:39;99186.00;;;3.40
70050;BMP180;57391;51.306;22.680;2023-03-13T02:36:08;99189.80;;;3.40
70050;BMP180;57391;51.306;22.680;2023-03-13T02:38:46;99199.00;;;3.40
70050;BMP180;57391;51.306;22.680;2023-03-13T02:41:19;99202.80;;;3.42
70050;BMP180;57391;51.306;22.680;2023-03-13T02:43:47;99203.00;;;3.40
70050;BMP180;57391;51.306;22.680;2023-03-13T02:46:18;99197.60;;;3.42
70050;BMP180;57391;51.306;22.680;2023-03-13T02:48:51;99193.00;;;3.50
70050;BMP180;57391;51.306;22.680;2023-03-13T02:51:35;99192.40;;;3.50
70050;BMP180;57391;51.306;22.680;2023-03-13T02:54:09;99193.00;;;3.50
70050;BMP180;57391;51.306;22.680;2023-03-13T02:56:41;99192.20;;;3.42
70050;BMP180;57391;51.306;22.680;2023-03-13T02:59:10;99192.60;;;3.46
70050;BMP180;57391;51.306;22.680;2023-03-13T03:01:39;99187.60;;;3.44
70050;BMP180;57391;51.306;22.680;2023-03-13T03:04:07;99185.00;;;3.44
70050;BMP180;57391;51.306;22.680;2023-03-13T03:06:34;99189.20;;;3.40
70050;BMP180;57391;51.306;22.680;2023-03-13T03:09:03;99194.60;;;3.40
70050;BMP180;57391;51.306;22.680;2023-03-13T03:11:31;99190.80;;;3.30
70050;BMP180;57391;51.306;22.680;2023-03-13T03:14:01;99179.80;;;3.30
70050;BMP180;57391;51.306;22.680;2023-03-13T03:16:31;99174.40;;;3.30
70050;BMP180;57391;51.306;22.680;2023-03-13T03:18:58;99177.00;;;3.30
70050;BMP180;57391;51.306;22.680;2023-03-13T03:21:26;99177.60;;;3.28
70050;BMP180;57391;51.306;22.680;2023-03-13T03:23:53;99177.40;;;3.24
70050;BMP180;57391;51.306;22.680;2023-03-13T03:26:20;99188.20;;;3.20
70050;BMP180;57391;51.306;22.680;2023-03-13T03:28:48;99182.40;;;3.20
70050;BMP180;57391;51.306;22.680;2023-03-13T03:31:17;99181.00;;;3.20
70050;BMP180;57391;51.306;22.680;2023-03-13T03:33:45;99182.40;;;3.20
70050;BMP180;57391;51.306;22.680;2023-03-13T03:36:18;99180.00;;;3.20
70050;BMP180;57391;51.306;22.680;2023-03-13T03:38:47;99187.40;;;3.20
70050;BMP180;57391;51.306;22.680;2023-03-13T03:41:16;99186.80;;;3.20
70050;BMP180;57391;51.306;22.680;2023-03-13T03:43:46;99189.80;;;3.20
70050;BMP180;57391;51.306;22.680;2023-03-13T03:46:16;99184.20;;;3.20
70050;BMP180;57391;51.306;22.680;2023-03-13T03:48:43;99183.80;;;3.10
70050;BMP180;57391;51.306;22.680;2023-03-13T03:51:12;99180.00;;;3.10
70050;BMP180;57391;51.306;22.680;2023-03-13T03:53:41;99173.80;;;3.10
70050;BMP180;57391;51.306;22.680;2023-03-13T03:56:08;99162.40;;;3.10
70050;BMP180;57391;51.306;22.680;2023-03-13T03:58:39;99158.00;;;3.02
70050;BMP180;57391;51.306;22.680;2023-03-13T04:01:14;99165.80;;;3.00
70050;BMP180;57391;51.306;22.680;2023-03-13T04:03:41;99164.00;;;3.00
70050;BMP180;57391;51.306;22.680;2023-03-13T04:06:09;99166.40;;;3.00
70050;BMP180;57391;51.306;22.680;2023-03-13T04:08:36;99165.40;;;3.00
70050;BMP180;57391;51.306;22.680;2023-03-13T04:11:04;99153.80;;;2.96
70050;BMP180;57391;51.306;22.680;2023-03-13T04:13:36;99160.80;;;2.98
70050;BMP180;57391;51.306;22.680;2023-03-13T04:16:08;99166.80;;;2.90
70050;BMP180;57391;51.306;22.680;2023-03-13T04:18:36;99170.40;;;2.90
70050;BMP180;57391;51.306;22.680;2023-03-13T04:21:05;99173.40;;;2.90
70050;BMP180;57391;51.306;22.680;2023-03-13T04:23:39;99173.20;;;2.88
70050;BMP180;57391;51.306;22.680;2023-03-13T04:26:07;99177.80;;;2.80
70050;BMP180;57391;51.306;22.680;2023-03-13T04:28:34;99171.80;;;2.80
70050;BMP180;57391;51.306;22.680;2023-03-13T04:31:03;99162.20;;;2.80
70050;BMP180;57391;51.306;22.680;2023-03-13T04:33:49;99156.00;;;2.80
70050;BMP180;57391;51.306;22.680;2023-03-13T04:36:24;99160.60;;;2.80
70050;BMP180;57391;51.306;22.680;2023-03-13T04:39:12;99164.60;;;2.80
70050;BMP180;57391;51.306;22.680;2023-03-13T04:42:15;99164.00;;;2.70
70050;BMP180;57391;51.306;22.680;2023-03-13T04:45:00;99160.00;;;2.70
70050;BMP180;57391;51.306;22.680;2023-03-13T04:47:55;99168.40;;;2.70
70050;BMP180;57391;51.306;22.680;2023-03-13T04:50:41;99172.80;;;2.70
70050;BMP180;57391;51.306;22.680;2023-03-13T04:53:35;99173.60;;;2.60
70050;BMP180;57391;51.306;22.680;2023-03-13T04:56:26;99172.60;;;2.60
70050;BMP180;57391;51.306;22.680;2023-03-13T04:59:16;99165.20;;;2.54
70050;BMP180;57391;51.306;22.680;2023-03-13T05:02:02;99168.40;;;2.50
70050;BMP180;57391;51.306;22.680;2023-03-13T05:04:58;99161.20;;;2.50
70050;BMP180;57391;51.306;22.680;2023-03-13T05:07:45;99159.40;;;2.50
70050;BMP180;57391;51.306;22.680;2023-03-13T05:10:33;99151.60;;;2.50
70050;BMP180;57391;51.306;22.680;2023-03-13T05:13:13;99152.00;;;2.40
70050;BMP180;57391;51.306;22.680;2023-03-13T05:15:54;99148.00;;;2.40
70050;BMP180;57391;51.306;22.680;2023-03-13T05:18:31;99148.20;;;2.30
70050;BMP180;57391;51.306;22.680;2023-03-13T05:21:06;99152.20;;;2.30
70050;BMP180;57391;51.306;22.680;2023-03-13T05:23:36;99147.40;;;2.20
70050;BMP180;57391;51.306;22.680;2023-03-13T05:26:22;99143.40;;;2.20
70050;BMP180;57391;51.306;22.680;2023-03-13T05:29:09;99143.40;;;2.20
70050;BMP180;57391;51.306;22.680;2023-03-13T05:31:55;99139.20;;;2.10
70050;BMP180;57391;51.306;22.680;2023-03-13T05:34:37;99144.80;;;2.10
70050;BMP180;57391;51.306;22.680;2023-03-13T05:37:33;99147.00;;;2.10
70050;BMP180;57391;51.306;22.680;2023-03-13T05:40:18;99148.60;;;2.04
70050;BMP180;57391;51.306;22.680;2023-03-13T05:43:07;99150.60;;;2.00
70050;BMP180;57391;51.306;22.680;2023-03-13T05:45:46;99148.80;;;2.00
70050;BMP180;57391;51.306;22.680;2023-03-13T05:48:33;99148.80;;;2.00
70050;BMP180;57391;51.306;22.680;2023-03-13T05:51:18;99149.60;;;2.00
70050;BMP180;57391;51.306;22.680;2023-03-13T05:54:13;99149.00;;;2.00
70050;BMP180;57391;51.306;22.680;2023-03-13T05:56:55;99146.00;;;2.00
70050;BMP180;57391;51.306;22.680;2023-03-13T05:59:38;99142.40;;;2.00
70050;BMP180;57391;51.306;22.680;2023-03-13T06:02:49;99139.40;;;2.00
70050;BMP180;57391;51.306;22.680;2023-03-13T06:05:22;99142.60;;;2.00
70050;BMP180;57391;51.306;22.680;2023-03-13T06:07:49;99142.40;;;2.00
70050;BMP180;57391;51.306;22.680;2023-03-13T06:10:17;99136.20;;;2.08
70050;BMP180;57391;51.306;22.680;2023-03-13T06:12:52;99130.40;;;2.10
70050;BMP180;57391;51.306;22.680;2023-03-13T06:15:20;99128.40;;;2.10
70050;BMP180;57391;51.306;22.680;2023-03-13T06:17:57;99122.80;;;2.10
70050;BMP180;57391;51.306;22.680;2023-03-13T06:20:24;99124.60;;;2.20
70050;BMP180;57391;51.306;22.680;2023-03-13T06:22:51;99119.60;;;2.20
70050;BMP180;57391;51.306;22.680;2023-03-13T06:25:18;99122.60;;;2.20
70050;BMP180;57391;51.306;22.680;2023-03-13T06:27:45;99117.60;;;2.28
70050;BMP180;57391;51.306;22.680;2023-03-13T06:30:13;99122.00;;;2.30
70050;BMP180;57391;51.306;22.680;2023-03-13T06:32:40;99121.20;;;2.40
70050;BMP180;57391;51.306;22.680;2023-03-13T06:35:08;99116.40;;;2.40
70050;BMP180;57391;51.306;22.680;2023-03-13T06:37:35;99117.80;;;2.50
70050;BMP180;57391;51.306;22.680;2023-03-13T06:40:03;99118.80;;;2.50
70050;BMP180;57391;51.306;22.680;2023-03-13T06:42:32;99118.40;;;2.50
70050;BMP180;57391;51.306;22.680;2023-03-13T06:44:58;99121.20;;;2.58
70050;BMP180;57391;51.306;22.680;2023-03-13T06:47:26;99121.80;;;2.60
70050;BMP180;57391;51.306;22.680;2023-03-13T06:49:53;99115.00;;;2.60
70050;BMP180;57391;51.306;22.680;2023-03-13T06:52:20;99115.20;;;2.66
70050;BMP180;57391;51.306;22.680;2023-03-13T06:54:47;99113.20;;;2.70
70050;BMP180;57391;51.306;22.680;2023-03-13T06:57:15;99113.60;;;2.80
70050;BMP180;57391;51.306;22.680;2023-03-13T06:59:42;99111.40;;;2.90
70050;BMP180;57391;51.306;22.680;2023-03-13T07:02:13;99115.00;;;2.94
70050;BMP180;57391;51.306;22.680;2023-03-13T07:04:41;99109.80;;;3.00
70050;BMP180;57391;51.306;22.680;2023-03-13T07:07:09;99122.60;;;3.10
70050;BMP180;57391;51.306;22.680;2023-03-13T07:09:36;99124.20;;;3.10
70050;BMP180;57391;51.306;22.680;2023-03-13T07:12:04;99121.40;;;3.20
70050;BMP180;57391;51.306;22.680;2023-03-13T07:14:31;99110.40;;;3.20
70050;BMP180;57391;51.306;22.680;2023-03-13T07:16:58;99119.60;;;3.30
70050;BMP180;57391;51.306;22.680;2023-03-13T07:19:25;99124.60;;;3.30
70050;BMP180;57391;51.306;22.680;2023-03-13T07:21:53;99126.60;;;3.30
70050;BMP180;57391;51.306;22.680;2023-03-13T07:24:21;99120.60;;;3.36
70050;BMP180;57391;51.306;22.680;2023-03-13T07:26:49;99112.00;;;3.40
70050;BMP180;57391;51.306;22.680;2023-03-13T07:29:16;99111.80;;;3.40
70050;BMP180;57391;51.306;22.680;2023-03-13T07:31:44;99106.80;;;3.40
70050;BMP180;57391;51.306;22.680;2023-03-13T07:34:11;99114.80;;;3.40
70050;BMP180;57391;51.306;22.680;2023-03-13T07:36:38;99106.60;;;3.44
70050;BMP180;57391;51.306;22.680;2023-03-13T07:39:07;99107.60;;;3.50
70050;BMP180;57391;51.306;22.680;2023-03-13T07:41:34;99109.00;;;3.50
70050;BMP180;57391;51.306;22.680;2023-03-13T07:44:02;99106.00;;;3.50
70050;BMP180;57391;51.306;22.680;2023-03-13T07:46:30;99101.60;;;3.58
70050;BMP180;57391;51.306;22.680;2023-03-13T07:48:58;99103.20;;;3.60
70050;BMP180;57391;51.306;22.680;2023-03-13T07:51:26;99098.80;;;3.60
70050;BMP180;57391;51.306;22.680;2023-03-13T07:53:53;99091.60;;;3.70
70050;BMP180;57391;51.306;22.680;2023-03-13T07:56:23;99093.00;;;3.70
70050;BMP180;57391;51.306;22.680;2023-03-13T07:58:50;99099.00;;;3.80
70050;BMP180;57391;51.306;22.680;2023-03-13T08:01:25;99094.80;;;3.88
70050;BMP180;57391;51.306;22.680;2023-03-13T08:03:53;99092.60;;;3.92
70050;BMP180;57391;51.306;22.680;2023-03-13T08:06:24;99094.00;;;4.00
70050;BMP180;57391;51.306;22.680;2023-03-13T08:08:56;99085.40;;;4.08
70050;BMP180;57391;51.306;22.680;2023-03-13T08:11:27;99085.20;;;4.10
70050;BMP180;57391;51.306;22.680;2023-03-13T08:13:56;99092.20;;;4.20
70050;BMP180;57391;51.306;22.680;2023-03-13T08:16:28;99087.80;;;4.30
70050;BMP180;57391;51.306;22.680;2023-03-13T08:18:57;99086.20;;;4.40
70050;BMP180;57391;51.306;22.680;2023-03-13T08:21:31;99090.60;;;4.42
70050;BMP180;57391;51.306;22.680;2023-03-13T08:24:02;99082.40;;;4.50
70050;BMP180;57391;51.306;22.680;2023-03-13T08:26:34;99076.20;;;4.60
70050;BMP180;57391;51.306;22.680;2023-03-13T08:29:11;99076.80;;;4.70
70050;BMP180;57391;51.306;22.680;2023-03-13T08:31:49;99071.40;;;4.80
70050;BMP180;57391;51.306;22.680;2023-03-13T08:34:19;99067.60;;;4.90
70050;BMP180;57391;51.306;22.680;2023-03-13T08:36:46;99070.00;;;5.00
70050;BMP180;57391;51.306;22.680;2023-03-13T08:39:18;99073.40;;;5.10
70050;BMP180;57391;51.306;22.680;2023-03-13T08:41:46;99062.00;;;5.30
70050;BMP180;57391;51.306;22.680;2023-03-13T08:44:17;99062.60;;;5.50
70050;BMP180;57391;51.306;22.680;2023-03-13T08:46:46;99068.40;;;5.70
70050;BMP180;57391;51.306;22.680;2023-03-13T08:49:15;99058.20;;;5.82
70050;BMP180;57391;51.306;22.680;2023-03-13T08:51:43;99060.80;;;5.96
70050;BMP180;57391;51.306;22.680;2023-03-13T08:54:11;99055.00;;;6.00
70050;BMP180;57391;51.306;22.680;2023-03-13T08:56:38;99059.80;;;6.10
70050;BMP180;57391;51.306;22.680;2023-03-13T08:59:07;99060.80;;;6.10
70050;BMP180;57391;51.306;22.680;2023-03-13T09:01:35;99062.80;;;6.10
70050;BMP180;57391;51.306;22.680;2023-03-13T09:04:04;99067.80;;;6.10
70050;BMP180;57391;51.306;22.680;2023-03-13T09:06:36;99069.60;;;6.10
70050;BMP180;57391;51.306;22.680;2023-03-13T09:09:04;99064.60;;;6.10
70050;BMP180;57391;51.306;22.680;2023-03-13T09:11:35;99060.40;;;6.10
70050;BMP180;57391;51.306;22.680;2023-03-13T09:14:03;99055.40;;;6.20
70050;BMP180;57391;51.306;22.680;2023-03-13T09:16:32;99055.80;;;6.20
70050;BMP180;57391;51.306;22.680;2023-03-13T09:19:01;99057.20;;;6.30
70050;BMP180;57391;51.306;22.680;2023-03-13T09:21:33;99054.40;;;6.40
70050;BMP180;57391;51.306;22.680;2023-03-13T09:24:01;99062.20;;;6.50
70050;BMP180;57391;51.306;22.680;2023-03-13T09:26:29;99058.40;;;6.66
70050;BMP180;57391;51.306;22.680;2023-03-13T09:28:57;99052.00;;;6.78
70050;BMP180;57391;51.306;22.680;2023-03-13T09:31:28;99061.00;;;6.90
70050;BMP180;57391;51.306;22.680;2023-03-13T09:33:56;99057.20;;;7.00
70050;BMP180;57391;51.306;22.680;2023-03-13T09:36:25;99048.40;;;7.20
70050;BMP180;57391;51.306;22.680;2023-03-13T09:38:56;99063.20;;;7.40
70050;BMP180;57391;51.306;22.680;2023-03-13T09:41:42;99053.80;;;7.62
70050;BMP180;57391;51.306;22.680;2023-03-13T09:47:23;99049.60;;;8.12
70050;BMP180;57391;51.306;22.680;2023-03-13T09:50:06;99040.00;;;8.30
70050;BMP180;57391;51.306;22.680;2023-03-13T09:52:40;99037.60;;;8.48
70050;BMP180;57391;51.306;22.680;2023-03-13T09:55:19;99030.00;;;8.60
70050;BMP180;57391;51.306;22.680;2023-03-13T09:57:55;99027.40;;;8.76
70050;BMP180;57391;51.306;22.680;2023-03-13T10:00:33;99021.40;;;8.90
70050;BMP180;57391;51.306;22.680;2023-03-13T10:03:21;99016.80;;;9.00
70050;BMP180;57391;51.306;22.680;2023-03-13T10:05:57;99013.20;;;9.10
70050;BMP180;57391;51.306;22.680;2023-03-13T10:08:35;99012.00;;;9.20
70050;BMP180;57391;51.306;22.680;2023-03-13T10:13:52;99004.00;;;9.40
70050;BMP180;57391;51.306;22.680;2023-03-13T10:16:26;99003.20;;;9.50
70050;BMP180;57391;51.306;22.680;2023-03-13T10:19:18;99002.20;;;9.64
70050;BMP180;57391;51.306;22.680;2023-03-13T10:21:52;98992.40;;;9.80
70050;BMP180;57391;51.306;22.680;2023-03-13T10:27:17;98996.40;;;10.06
70050;BMP180;57391;51.306;22.680;2023-03-13T10:29:44;98988.00;;;10.10
70050;BMP180;57391;51.306;22.680;2023-03-13T10:32:15;98986.40;;;10.10
70050;BMP180;57391;51.306;22.680;2023-03-13T10:37:28;98975.40;;;10.30
70050;BMP180;57391;51.306;22.680;2023-03-13T10:40:24;98970.60;;;10.40
70050;BMP180;57391;51.306;22.680;2023-03-13T10:43:00;98968.80;;;10.44
70050;BMP180;57391;51.306;22.680;2023-03-13T10:45:34;98969.60;;;10.50
70050;BMP180;57391;51.306;22.680;2023-03-13T10:48:52;98971.00;;;10.50
70050;BMP180;57391;51.306;22.680;2023-03-13T10:51:00;98959.00;;;10.60
70050;BMP180;57391;51.306;22.680;2023-03-13T10:56:15;98960.80;;;10.60
70050;BMP180;57391;51.306;22.680;2023-03-13T10:58:49;98951.60;;;10.70
70050;BMP180;57391;51.306;22.680;2023-03-13T11:01:28;98947.80;;;10.80
70050;BMP180;57391;51.306;22.680;2023-03-13T11:06:50;98928.60;;;11.00
70050;BMP180;57391;51.306;22.680;2023-03-13T11:09:21;98920.60;;;11.10
70050;BMP180;57391;51.306;22.680;2023-03-13T11:12:03;98935.00;;;11.20
70050;BMP180;57391;51.306;22.680;2023-03-13T11:14:32;98925.80;;;11.30
70050;BMP180;57391;51.306;22.680;2023-03-13T11:17:56;98925.20;;;11.34
70050;BMP180;57391;51.306;22.680;2023-03-13T11:20:33;98918.20;;;11.50
70050;BMP180;57391;51.306;22.680;2023-03-13T11:24:05;98922.00;;;11.62
70050;BMP180;57391;51.306;22.680;2023-03-13T11:26:39;98921.40;;;11.70
70050;BMP180;57391;51.306;22.680;2023-03-13T11:29:26;98909.20;;;11.80
70050;BMP180;57391;51.306;22.680;2023-03-13T11:32:01;98912.00;;;11.80
70050;BMP180;57391;51.306;22.680;2023-03-13T11:37:09;98887.40;;;11.82
70050;BMP180;57391;51.306;22.680;2023-03-13T11:48:50;98872.40;;;12.24
70050;BMP180;57391;51.306;22.680;2023-03-13T11:54:34;98879.40;;;12.40
70050;BMP180;57391;51.306;22.680;2023-03-13T11:57:27;98866.20;;;12.50
70050;BMP180;57391;51.306;22.680;2023-03-13T12:00:14;98862.40;;;12.60
70050;BMP180;57391;51.306;22.680;2023-03-13T12:03:00;98845.60;;;12.70
70050;BMP180;57391;51.306;22.680;2023-03-13T12:05:47;98852.80;;;12.62
70050;BMP180;57391;51.306;22.680;2023-03-13T12:08:27;98847.80;;;12.60
70050;BMP180;57391;51.306;22.680;2023-03-13T12:14:22;98839.20;;;12.68
70050;BMP180;57391;51.306;22.680;2023-03-13T12:17:34;98838.60;;;12.70
70050;BMP180;57391;51.306;22.680;2023-03-13T12:20:24;98840.80;;;12.64
70050;BMP180;57391;51.306;22.680;2023-03-13T12:23:06;98834.00;;;12.66
70050;BMP180;57391;51.306;22.680;2023-03-13T12:25:59;98829.60;;;12.60
70050;BMP180;57391;51.306;22.680;2023-03-13T12:29:15;98821.40;;;12.60
70050;BMP180;57391;51.306;22.680;2023-03-13T12:32:03;98813.00;;;12.60
70050;BMP180;57391;51.306;22.680;2023-03-13T12:43:23;98811.00;;;12.56
70050;BMP180;57391;51.306;22.680;2023-03-13T12:59:46;98792.80;;;12.70
70050;BMP180;57391;51.306;22.680;2023-03-13T13:02:20;98792.80;;;12.70
70050;BMP180;57391;51.306;22.680;2023-03-13T13:04:50;98786.60;;;12.70
70050;BMP180;57391;51.306;22.680;2023-03-13T13:07:32;98773.80;;;12.60
70050;BMP180;57391;51.306;22.680;2023-03-13T13:12:27;98774.20;;;12.56
70050;BMP180;57391;51.306;22.680;2023-03-13T13:20:45;98758.80;;;12.40
70050;BMP180;57391;51.306;22.680;2023-03-13T13:23:40;98761.40;;;12.40
70050;BMP180;57391;51.306;22.680;2023-03-13T13:37:23;98766.60;;;12.24
70050;BMP180;57391;51.306;22.680;2023-03-13T13:39:52;98764.00;;;12.20
70050;BMP180;57391;51.306;22.680;2023-03-13T13:47:45;98778.60;;;12.20
70050;BMP180;57391;51.306;22.680;2023-03-13T13:52:48;98768.00;;;12.10
70050;BMP180;57391;51.306;22.680;2023-03-13T13:55:42;98766.80;;;12.10
70050;BMP180;57391;51.306;22.680;2023-03-13T13:58:16;98764.20;;;12.10
70050;BMP180;57391;51.306;22.680;2023-03-13T14:00:55;98757.60;;;12.10
70050;BMP180;57391;51.306;22.680;2023-03-13T14:03:30;98745.00;;;12.10
70050;BMP180;57391;51.306;22.680;2023-03-13T14:06:16;98742.80;;;12.10
70050;BMP180;57391;51.306;22.680;2023-03-13T14:08:45;98733.80;;;12.10
70050;BMP180;57391;51.306;22.680;2023-03-13T14:11:29;98728.80;;;12.10
70050;BMP180;57391;51.306;22.680;2023-03-13T14:14:18;98730.20;;;12.10
70050;BMP180;57391;51.306;22.680;2023-03-13T14:16:56;98715.20;;;12.10
70050;BMP180;57391;51.306;22.680;2023-03-13T14:19:36;98710.80;;;12.10
70050;BMP180;57391;51.306;22.680;2023-03-13T14:22:10;98702.60;;;12.10
70050;BMP180;57391;51.306;22.680;2023-03-13T14:24:40;98708.60;;;12.10
70050;BMP180;57391;51.306;22.680;2023-03-13T14:27:17;98703.20;;;12.08
70050;BMP180;57391;51.306;22.680;2023-03-13T14:30:07;98691.40;;;12.10
70050;BMP180;57391;51.306;22.680;2023-03-13T14:32:37;98695.00;;;12.08
70050;BMP180;57391;51.306;22.680;2023-03-13T14:35:08;98697.40;;;12.08
70050;BMP180;57391;51.306;22.680;2023-03-13T14:37:44;98689.00;;;12.08
70050;BMP180;57391;51.306;22.680;2023-03-13T14:42:48;98691.40;;;12.00
70050;BMP180;57391;51.306;22.680;2023-03-13T14:45:28;98691.20;;;12.00
70050;BMP180;57391;51.306;22.680;2023-03-13T14:50:50;98688.60;;;11.90
70050;BMP180;57391;51.306;22.680;2023-03-13T14:53:22;98682.80;;;11.90
70050;BMP180;57391;51.306;22.680;2023-03-13T14:56:14;98690.00;;;11.80
70050;BMP180;57391;51.306;22.680;2023-03-13T14:58:45;98680.60;;;11.80
70050;BMP180;57391;51.306;22.680;2023-03-13T15:01:26;98679.60;;;11.70
70050;BMP180;57391;51.306;22.680;2023-03-13T15:03:58;98680.80;;;11.70
70050;BMP180;57391;51.306;22.680;2023-03-13T15:06:26;98679.40;;;11.70
70050;BMP180;57391;51.306;22.680;2023-03-13T15:11:52;98686.40;;;11.60
70050;BMP180;57391;51.306;22.680;2023-03-13T15:14:50;98682.40;;;11.60
70050;BMP180;57391;51.306;22.680;2023-03-13T15:17:25;98691.00;;;11.50
70050;BMP180;57391;51.306;22.680;2023-03-13T15:19:57;98686.40;;;11.50
70050;BMP180;57391;51.306;22.680;2023-03-13T15:22:35;98690.00;;;11.40
70050;BMP180;57391;51.306;22.680;2023-03-13T15:25:14;98688.20;;;11.40
70050;BMP180;57391;51.306;22.680;2023-03-13T15:27:41;98691.60;;;11.38
70050;BMP180;57391;51.306;22.680;2023-03-13T15:30:16;98690.20;;;11.30
70050;BMP180;57391;51.306;22.680;2023-03-13T15:32:45;98691.60;;;11.30
70050;BMP180;57391;51.306;22.680;2023-03-13T15:35:29;98688.60;;;11.28
70050;BMP180;57391;51.306;22.680;2023-03-13T15:37:59;98691.80;;;11.20
70050;BMP180;57391;51.306;22.680;2023-03-13T15:40:27;98684.00;;;11.20
70050;BMP180;57391;51.306;22.680;2023-03-13T15:42:56;98691.60;;;11.20
70050;BMP180;57391;51.306;22.680;2023-03-13T15:45:25;98689.40;;;11.20
70050;BMP180;57391;51.306;22.680;2023-03-13T15:47:52;98691.00;;;11.10
70050;BMP180;57391;51.306;22.680;2023-03-13T15:50:21;98693.80;;;11.10
70050;BMP180;57391;51.306;22.680;2023-03-13T15:52:58;98686.60;;;11.10
70050;BMP180;57391;51.306;22.680;2023-03-13T15:55:28;98680.20;;;11.00
70050;BMP180;57391;51.306;22.680;2023-03-13T15:57:55;98674.60;;;11.00
70050;BMP180;57391;51.306;22.680;2023-03-13T16:00:25;98681.60;;;10.90
70050;BMP180;57391;51.306;22.680;2023-03-13T16:02:53;98676.80;;;10.86
70050;BMP180;57391;51.306;22.680;2023-03-13T16:05:20;98668.60;;;10.80
70050;BMP180;57391;51.306;22.680;2023-03-13T16:07:48;98674.20;;;10.72
70050;BMP180;57391;51.306;22.680;2023-03-13T16:10:27;98676.60;;;10.70
70050;BMP180;57391;51.306;22.680;2023-03-13T16:12:54;98665.80;;;10.60
70050;BMP180;57391;51.306;22.680;2023-03-13T16:15:22;98665.40;;;10.56
70050;BMP180;57391;51.306;22.680;2023-03-13T16:17:49;98664.80;;;10.50